Flight Track Log - Related Links

Times and Time Zones

All times are in EDT time to prevent confusion due to time zone crossing. See the AAL2345 flight status page for this flight to view local times or setup timezone preferences in your user account.

Time Position Orientation Groundspeed Altitude Reporting Facility
EDT Latitude Longitude Course Direction KTS MPH feet Rate Location/Type
Thu 07:06:16 PM 41.9414 -87.9083 194° South 175 201 32,000  Level Chicago Center
Thu 07:07:18 PM 41.8997 -87.9083 180° South 176 203 3,700 -12,484 Descending Chicago Center
Thu 07:08:00 PM 41.7658 -88.1621 201° Southwest  Level Estimated
Thu 07:08:20 PM 41.8311 -87.9347 196° South 216 249 6,200  Level Chicago Center
Thu 07:09:00 PM 41.6754 -88.1191 160° South  Level FlightAware Approximate
Thu 07:09:23 PM 41.7636 -87.9772 205° Southwest 262 302 9,100  Level Chicago Center
Thu 07:10:00 PM 41.6038 -88.2045 197° South  Level Estimated
Thu 07:10:24 PM 41.6889 -88.0200 203° Southwest 286 329 12,200  Level Chicago Center
Thu 07:11:00 PM 41.5321 -88.2897 194° South  Level Estimated
Thu 07:11:26 PM 41.6111 -88.0617 202° Southwest 301 346 14,700  Level Chicago Center
Thu 07:12:29 PM 41.5142 -88.1153 202° Southwest 319 367 17,400 2,016 Climbing Chicago Center
Thu 07:13:31 PM 41.4319 -88.1628 203° Southwest 334 384 18,900 1,548 Climbing Chicago Center
Thu 07:14:33 PM 41.3381 -88.2097 201° Southwest 370 426 20,600 1,790 Climbing Chicago Center
Thu 07:15:35 PM 41.2381 -88.2544 199° South 382 440 22,600 1,935 Climbing Chicago Center
Thu 07:16:37 PM 41.1156 -88.3103 199° South 389 448 24,600 1,694 Climbing Chicago Center
Thu 07:17:39 PM 41.0106 -88.3583 199° South 399 459 26,100 1,403 Climbing Chicago Center
Thu 07:18:41 PM 40.9028 -88.4064 199° South 407 468 27,500 1,161 Climbing Chicago Center
Thu 07:19:43 PM 40.7936 -88.4553 199° South 413 475 28,500 871 Climbing Chicago Center
Thu 07:20:45 PM 40.6811 -88.5056 199° South 428 493 29,300 1,065 Climbing Chicago Center
Thu 07:21:47 PM 40.5408 -88.5683 199° South 442 509 30,700 1,210 Climbing Chicago Center
Thu 07:22:49 PM 40.4256 -88.6183 198° South 442 509 31,800 624 Climbing Chicago Center
Thu 07:23:52 PM 40.3100 -88.6733 200° South 442 509 32,000 96 Climbing Chicago Center
Thu 07:24:54 PM 40.2231 -88.7628 218° Southwest 399 459 32,000  Level Chicago Center
Thu 07:25:56 PM 40.1361 -88.8539 219° Southwest 399 459 32,000  Level Chicago Center
Thu 07:26:59 PM 40.0467 -88.9453 218° Southwest 400 460 32,000  Level Kansas City Center
Thu 07:27:57 PM 39.9572 -89.0364 218° Southwest 403 464 32,000  Level Kansas City Center
Thu 07:29:01 PM 39.8697 -89.1264 218° Southwest 401 461 32,000  Level Kansas City Center
Thu 07:30:01 PM 39.7806 -89.2164 218° Southwest 403 464 32,000  Level Kansas City Center
Thu 07:31:05 PM 39.6875 -89.3119 218° Southwest 402 463 32,000  Level Kansas City Center
Thu 07:32:06 PM 39.6006 -89.4006 218° Southwest 399 459 32,000  Level Kansas City Center
Thu 07:33:07 PM 39.4942 -89.5075 218° Southwest 402 463 32,000  Level Kansas City Center
Thu 07:34:11 PM 39.4058 -89.5964 218° Southwest 402 463 32,000  Level Kansas City Center
Thu 07:35:12 PM 39.3178 -89.6822 217° Southwest 399 459 32,000  Level Kansas City Center
Thu 07:36:16 PM 39.2311 -89.7700 218° Southwest 396 456 32,000  Level Kansas City Center
Thu 07:37:17 PM 39.1297 -89.8736 218° Southwest 398 458 32,000  Level Kansas City Center
Thu 07:38:17 PM 39.0422 -89.9589 217° Southwest 398 458 32,000  Level Kansas City Center
Thu 07:39:22 PM 38.9608 -90.0531 222° Southwest 382 440 32,000  Level Kansas City Center
Thu 07:40:22 PM 38.8928 -90.1467 227° Southwest 370 426 32,000  Level Kansas City Center
Thu 07:41:23 PM 38.8214 -90.2461 227° Southwest 373 429 32,000  Level Kansas City Center
Thu 07:42:27 PM 38.7489 -90.3444 227° Southwest 377 434 32,000  Level Kansas City Center
Thu 07:43:29 PM 38.6622 -90.4639 227° Southwest 378 435 32,000  Level Kansas City Center
Thu 07:44:30 PM 38.5864 -90.5617 225° Southwest 383 441 32,000  Level Kansas City Center
Thu 07:45:31 PM 38.5131 -90.6611 227° Southwest 381 438 32,000  Level Kansas City Center
Thu 07:46:35 PM 38.4478 -90.7489 226° Southwest 377 434 32,000  Level Kansas City Center
Thu 07:47:36 PM 38.3625 -90.8631 226° Southwest 373 429 32,000  Level Kansas City Center
Thu 07:48:37 PM 38.2911 -90.9583 226° Southwest 372 428 32,000  Level Kansas City Center
Thu 07:49:41 PM 38.2203 -91.0536 227° Southwest 372 428 32,000  Level Kansas City Center
Thu 07:50:41 PM 38.1381 -91.1600 226° Southwest 374 430 32,000 194 Level Kansas City Center
Thu 07:51:45 PM 38.0647 -91.2550 226° Southwest 375 432 32,400 624 Climbing Kansas City Center
Thu 07:52:46 PM 37.9928 -91.3519 227° Southwest 376 433 33,300 768 Climbing Kansas City Center
Thu 07:53:50 PM 37.9206 -91.4467 226° Southwest 371 427 34,000 339 Climbing Kansas City Center
Thu 07:54:50 PM 37.8483 -91.5411 226° Southwest 370 426 34,000  Level Kansas City Center
Thu 07:55:53 PM 37.7778 -91.6356 227° Southwest 368 423 34,000  Level Kansas City Center
Thu 07:56:55 PM 37.7058 -91.7294 226° Southwest 368 423 34,000  Level Kansas City Center
Thu 07:57:55 PM 37.6356 -91.8228 226° Southwest 365 420 34,000  Level Kansas City Center
Thu 07:59:00 PM 37.5500 -91.9347 226° Southwest 365 420 34,000  Level Kansas City Center
Thu 08:00:00 PM 37.4781 -92.0247 225° Southwest 363 418 34,000  Level Kansas City Center
Thu 08:01:01 PM 37.3997 -92.1114 221° Southwest 367 422 34,000  Level Kansas City Center
Thu 08:02:05 PM 37.3217 -92.1994 222° Southwest 373 429 34,000  Level Kansas City Center
Thu 08:03:07 PM 37.2439 -92.2872 222° Southwest 373 429 34,000  Level Kansas City Center
Thu 08:04:09 PM 37.1675 -92.3708 221° Southwest 366 421 34,000  Level Kansas City Center
Thu 08:05:08 PM 37.0911 -92.4561 222° Southwest 365 420 34,000  Level Kansas City Center
Thu 08:06:12 PM 37.0139 -92.5403 221° Southwest 365 420 34,000  Level Kansas City Center
Thu 08:07:12 PM 36.9369 -92.6253 221° Southwest 366 421 34,000  Level Kansas City Center
Thu 08:08:16 PM 36.8439 -92.7267 221° Southwest 367 422 34,000  Level Kansas City Center
Thu 08:09:21 PM 36.7661 -92.8147 222° Southwest 372 428 34,000 -240 Level Memphis Center
Thu 08:10:21 PM 36.6894 -92.8978 221° Southwest 372 428 33,500 -744 Descending Memphis Center
Thu 08:11:22 PM 36.6128 -92.9808 221° Southwest 372 428 32,500 -750 Descending Memphis Center
Thu 08:12:21 PM 36.5317 -93.0686 221° Southwest 372 428 32,000 -252 Descending Memphis Center
Thu 08:13:21 PM 36.4525 -93.1511 220° Southwest 372 428 32,000  Level Memphis Center
Thu 08:14:21 PM 36.3714 -93.2386 221° Southwest 377 434 32,000  Level Memphis Center
Thu 08:15:21 PM 36.2922 -93.3206 220° Southwest 377 434 32,000  Level Memphis Center
Thu 08:16:21 PM 36.2108 -93.4103 222° Southwest 382 440 32,000  Level Memphis Center
Thu 08:17:21 PM 36.1317 -93.4922 220° Southwest 382 440 32,000  Level Memphis Center
Thu 08:18:21 PM 36.0503 -93.5789 221° Southwest 387 445 32,000  Level Memphis Center
Thu 08:19:21 PM 35.9711 -93.6631 221° Southwest 387 445 32,000  Level Memphis Center
Thu 08:20:21 PM 35.8914 -93.7494 221° Southwest 387 445 32,000  Level Memphis Center
Thu 08:21:22 PM 35.8100 -93.8333 220° Southwest 387 445 32,000  Level Memphis Center
Thu 08:22:21 PM 35.7283 -93.9192 220° Southwest 387 445 32,000  Level Memphis Center
Thu 08:23:21 PM 35.6467 -94.0025 220° Southwest 387 445 32,000  Level Memphis Center
Thu 08:24:21 PM 35.5647 -94.0883 220° Southwest 387 445 32,000  Level Memphis Center
Thu 08:25:21 PM 35.4831 -94.1714 220° Southwest 387 445 32,000  Level Memphis Center
Thu 08:27:42 PM 35.2842 -94.3872 222° Southwest 409 471 32,000  Level Fort Worth Center
Thu 08:28:42 PM 35.2050 -94.4764 223° Southwest 396 456 32,000 -300 Level Fort Worth Center
Thu 08:29:42 PM 35.1217 -94.5656 221° Southwest 396 456 31,400 -750 Descending Fort Worth Center
Thu 08:30:42 PM 35.0422 -94.6544 223° Southwest 396 456 30,500 -950 Descending Fort Worth Center
Thu 08:31:42 PM 34.9586 -94.7433 221° Southwest 401 461 29,500 -1,050 Descending Fort Worth Center
Thu 08:32:42 PM 34.8731 -94.8372 222° Southwest 401 461 28,400 -750 Descending Fort Worth Center
Thu 08:33:42 PM 34.7994 -94.9153 221° Southwest 401 461 28,000 -600 Descending Fort Worth Center
Thu 08:34:42 PM 34.7117 -95.0089 221° Southwest 406 467 27,200 -950 Descending Fort Worth Center
Thu 08:35:42 PM 34.6236 -95.1019 221° Southwest 413 475 26,100 -1,050 Descending Fort Worth Center
Thu 08:36:42 PM 34.5378 -95.1925 221° Southwest 419 482 25,100 -900 Descending Fort Worth Center
Thu 08:37:42 PM 34.4517 -95.2856 222° Southwest 419 482 24,300 -550 Descending Fort Worth Center
Thu 08:38:42 PM 34.3656 -95.3781 222° Southwest 419 482 24,000 -150 Descending Fort Worth Center
Thu 08:39:42 PM 34.2794 -95.4681 221° Southwest 419 482 24,000  Level Fort Worth Center
Thu 08:40:42 PM 34.1908 -95.5581 220° Southwest 419 482 24,000  Level Fort Worth Center
Thu 08:41:42 PM 34.1047 -95.6475 221° Southwest 419 482 24,000 -347 Level Fort Worth Center
Thu 08:42:43 PM 34.0142 -95.7472 222° Southwest 414 476 23,300 -1,250 Descending Fort Worth Center
Thu 08:43:42 PM 33.9319 -95.8339 221° Southwest 409 471 21,500 -2,017 Descending Fort Worth Center
Thu 08:44:42 PM 33.8494 -95.9228 222° Southwest 403 464 19,300 -2,350 Descending Fort Worth Center
Thu 08:45:42 PM 33.7669 -95.9992 218° Southwest 390 449 16,800 -2,450 Descending Fort Worth Center
Thu 08:46:42 PM 33.6947 -96.0728 220° Southwest 385 443 14,400 -2,150 Descending Fort Worth Center
Thu 08:47:42 PM 33.6078 -96.1614 220° Southwest 375 432 12,500 -1,400 Descending Fort Worth Center
Thu 08:48:42 PM 33.5417 -96.2322 222° Southwest 375 432 11,600 -744 Descending Fort Worth Center
Thu 08:49:43 PM 33.4694 -96.3178 225° Southwest 344 396 11,000 -300 Descending Fort Worth Center
Thu 08:50:42 PM 33.4178 -96.3831 227° Southwest 313 360 11,000 -101 Level Fort Worth Center
Thu 08:51:42 PM 33.3600 -96.4558 226° Southwest 283 326 10,800 -650 Descending Fort Worth Center
Thu 08:52:42 PM 33.3333 -96.5283 246° West 273 314 9,700 -1,450 Descending Fort Worth Center
Thu 08:53:42 PM 33.3025 -96.6056 244° Southwest 267 307 7,900 -1,750 Descending Fort Worth Center
Thu 08:54:42 PM 33.2675 -96.6928 244° Southwest 267 307 6,200 -1,300 Descending Fort Worth Center
Thu 08:55:42 PM 33.2408 -96.7628 246° West 262 302 5,300 -595 Descending Fort Worth Center
Thu 08:56:43 PM 33.1889 -96.8375 230° Southwest 262 302 5,000 -400 Descending Fort Worth Center
Thu 08:57:42 PM 33.1433 -96.8975 228° Southwest 257 296 4,500 -807 Descending Fort Worth Center
Thu 08:58:42 PM 33.1039 -96.9472 227° Southwest 242 278 3,400 -744 Descending Fort Worth Center
Thu 08:59:43 PM 33.0581 -97.0044 226° Southwest 220 253 3,000 -393 Descending Fort Worth Center

Login

Don't have an account? Register now (free) for customized features, flight alerts, and more!